sensor_id;sensor_type;location;lat;lon;timestamp;temperature;humidity
12957;DHT22;6543;48.836;10.092;2022-10-16T00:00:39;14.90;99.90
12957;DHT22;6543;48.836;10.092;2022-10-16T00:03:07;14.90;99.90
12957;DHT22;6543;48.836;10.092;2022-10-16T00:05:38;14.80;99.90
12957;DHT22;6543;48.836;10.092;2022-10-16T00:08:05;14.80;99.90
12957;DHT22;6543;48.836;10.092;2022-10-16T00:10:33;14.90;99.90
12957;DHT22;6543;48.836;10.092;2022-10-16T00:12:59;14.80;99.90
12957;DHT22;6543;48.836;10.092;2022-10-16T00:15:26;14.80;99.90
12957;DHT22;6543;48.836;10.092;2022-10-16T00:17:55;14.80;99.90
12957;DHT22;6543;48.836;10.092;2022-10-16T00:20:21;14.90;99.90
12957;DHT22;6543;48.836;10.092;2022-10-16T00:22:48;14.90;99.90
12957;DHT22;6543;48.836;10.092;2022-10-16T00:25:15;14.90;99.90
12957;DHT22;6543;48.836;10.092;2022-10-16T00:27:42;14.90;99.90
12957;DHT22;6543;48.836;10.092;2022-10-16T00:30:09;14.90;99.90
12957;DHT22;6543;48.836;10.092;2022-10-16T00:32:36;15.10;99.90
12957;DHT22;6543;48.836;10.092;2022-10-16T00:35:05;15.10;99.90
12957;DHT22;6543;48.836;10.092;2022-10-16T00:37:32;15.10;99.90
12957;DHT22;6543;48.836;10.092;2022-10-16T00:39:59;15.00;99.90
12957;DHT22;6543;48.836;10.092;2022-10-16T00:42:26;15.10;99.90
12957;DHT22;6543;48.836;10.092;2022-10-16T00:44:54;15.10;99.90
12957;DHT22;6543;48.836;10.092;2022-10-16T00:47:25;15.00;99.90
12957;DHT22;6543;48.836;10.092;2022-10-16T00:49:56;15.00;99.90
12957;DHT22;6543;48.836;10.092;2022-10-16T00:52:26;15.00;99.90
12957;DHT22;6543;48.836;10.092;2022-10-16T00:54:54;15.10;99.90
12957;DHT22;6543;48.836;10.092;2022-10-16T00:57:21;15.10;99.90
12957;DHT22;6543;48.836;10.092;2022-10-16T00:59:48;15.00;99.90
12957;DHT22;6543;48.836;10.092;2022-10-16T01:02:16;15.20;99.90
12957;DHT22;6543;48.836;10.092;2022-10-16T01:04:45;15.10;99.90
12957;DHT22;6543;48.836;10.092;2022-10-16T01:07:17;15.10;99.90
12957;DHT22;6543;48.836;10.092;2022-10-16T01:09:58;15.10;99.90
12957;DHT22;6543;48.836;10.092;2022-10-16T01:12:33;15.10;99.90
12957;DHT22;6543;48.836;10.092;2022-10-16T01:15:07;15.10;99.90
12957;DHT22;6543;48.836;10.092;2022-10-16T01:17:41;15.00;99.90
12957;DHT22;6543;48.836;10.092;2022-10-16T01:20:14;15.00;99.90
12957;DHT22;6543;48.836;10.092;2022-10-16T01:22:53;15.00;99.90
12957;DHT22;6543;48.836;10.092;2022-10-16T01:25:30;15.00;99.90
12957;DHT22;6543;48.836;10.092;2022-10-16T01:28:06;15.00;99.90
12957;DHT22;6543;48.836;10.092;2022-10-16T01:30:35;15.00;99.90
12957;DHT22;6543;48.836;10.092;2022-10-16T01:33:08;15.00;99.90
12957;DHT22;6543;48.836;10.092;2022-10-16T01:35:38;15.00;99.90
12957;DHT22;6543;48.836;10.092;2022-10-16T01:38:09;14.90;99.90
12957;DHT22;6543;48.836;10.092;2022-10-16T01:40:39;15.00;99.90
12957;DHT22;6543;48.836;10.092;2022-10-16T01:43:13;15.00;99.90
12957;DHT22;6543;48.836;10.092;2022-10-16T01:45:41;14.90;99.90
12957;DHT22;6543;48.836;10.092;2022-10-16T01:48:12;14.80;99.90
12957;DHT22;6543;48.836;10.092;2022-10-16T01:50:41;14.80;99.90
12957;DHT22;6543;48.836;10.092;2022-10-16T01:53:12;14.70;99.90
12957;DHT22;6543;48.836;10.092;2022-10-16T01:55:43;14.70;99.90
12957;DHT22;6543;48.836;10.092;2022-10-16T01:58:13;14.70;99.90
12957;DHT22;6543;48.836;10.092;2022-10-16T02:00:43;14.70;99.90
12957;DHT22;6543;48.836;10.092;2022-10-16T02:03:12;14.70;99.90
12957;DHT22;6543;48.836;10.092;2022-10-16T02:05:42;14.70;99.90
12957;DHT22;6543;48.836;10.092;2022-10-16T02:08:11;14.70;99.90
12957;DHT22;6543;48.836;10.092;2022-10-16T02:10:39;14.70;99.90
12957;DHT22;6543;48.836;10.092;2022-10-16T02:13:09;14.70;99.90
12957;DHT22;6543;48.836;10.092;2022-10-16T02:15:38;15.70;99.90
12957;DHT22;6543;48.836;10.092;2022-10-16T02:18:06;14.60;99.90
12957;DHT22;6543;48.836;10.092;2022-10-16T02:20:38;14.60;99.90
12957;DHT22;6543;48.836;10.092;2022-10-16T02:23:09;14.60;99.90
12957;DHT22;6543;48.836;10.092;2022-10-16T02:25:40;14.60;99.90
12957;DHT22;6543;48.836;10.092;2022-10-16T02:28:13;14.50;99.90
12957;DHT22;6543;48.836;10.092;2022-10-16T02:30:46;14.50;99.90
12957;DHT22;6543;48.836;10.092;2022-10-16T02:33:15;14.50;99.90
12957;DHT22;6543;48.836;10.092;2022-10-16T02:35:44;14.40;99.90
12957;DHT22;6543;48.836;10.092;2022-10-16T02:38:12;14.50;99.90
12957;DHT22;6543;48.836;10.092;2022-10-16T02:40:39;14.50;99.90
12957;DHT22;6543;48.836;10.092;2022-10-16T02:43:06;14.50;99.90
12957;DHT22;6543;48.836;10.092;2022-10-16T02:45:33;14.50;99.90
12957;DHT22;6543;48.836;10.092;2022-10-16T02:48:01;14.50;99.90
12957;DHT22;6543;48.836;10.092;2022-10-16T02:50:28;14.50;99.90
12957;DHT22;6543;48.836;10.092;2022-10-16T02:52:55;14.50;99.90
12957;DHT22;6543;48.836;10.092;2022-10-16T02:55:22;14.50;99.90
12957;DHT22;6543;48.836;10.092;2022-10-16T02:57:49;14.40;99.90
12957;DHT22;6543;48.836;10.092;2022-10-16T03:00:17;14.40;99.90
12957;DHT22;6543;48.836;10.092;2022-10-16T03:02:44;14.40;99.90
12957;DHT22;6543;48.836;10.092;2022-10-16T03:05:14;14.40;99.90
12957;DHT22;6543;48.836;10.092;2022-10-16T03:07:40;14.40;99.90
12957;DHT22;6543;48.836;10.092;2022-10-16T03:10:08;14.40;99.90
12957;DHT22;6543;48.836;10.092;2022-10-16T03:12:35;14.40;99.90
12957;DHT22;6543;48.836;10.092;2022-10-16T03:15:02;14.40;99.90
12957;DHT22;6543;48.836;10.092;2022-10-16T03:17:29;14.40;99.90
12957;DHT22;6543;48.836;10.092;2022-10-16T03:19:58;14.40;99.90
12957;DHT22;6543;48.836;10.092;2022-10-16T03:22:26;14.40;99.90
12957;DHT22;6543;48.836;10.092;2022-10-16T03:24:52;14.40;99.90
12957;DHT22;6543;48.836;10.092;2022-10-16T03:27:19;14.30;99.90
12957;DHT22;6543;48.836;10.092;2022-10-16T03:29:46;14.40;99.90
12957;DHT22;6543;48.836;10.092;2022-10-16T03:32:13;14.30;99.90
12957;DHT22;6543;48.836;10.092;2022-10-16T03:34:40;14.40;99.90
12957;DHT22;6543;48.836;10.092;2022-10-16T03:37:06;14.40;99.90
12957;DHT22;6543;48.836;10.092;2022-10-16T03:39:35;14.30;99.90
12957;DHT22;6543;48.836;10.092;2022-10-16T03:42:01;14.20;99.90
12957;DHT22;6543;48.836;10.092;2022-10-16T03:44:28;14.10;99.90
12957;DHT22;6543;48.836;10.092;2022-10-16T03:46:55;14.10;99.90
12957;DHT22;6543;48.836;10.092;2022-10-16T03:49:22;14.10;99.90
12957;DHT22;6543;48.836;10.092;2022-10-16T03:51:49;14.10;99.90
12957;DHT22;6543;48.836;10.092;2022-10-16T03:54:15;14.10;99.90
12957;DHT22;6543;48.836;10.092;2022-10-16T03:56:44;14.20;99.90
12957;DHT22;6543;48.836;10.092;2022-10-16T03:59:10;14.20;99.90
12957;DHT22;6543;48.836;10.092;2022-10-16T04:01:37;14.30;99.90
12957;DHT22;6543;48.836;10.092;2022-10-16T04:04:04;14.40;99.90
12957;DHT22;6543;48.836;10.092;2022-10-16T04:06:31;14.40;99.90
12957;DHT22;6543;48.836;10.092;2022-10-16T04:08:58;14.40;99.90
12957;DHT22;6543;48.836;10.092;2022-10-16T04:11:24;14.40;99.90
12957;DHT22;6543;48.836;10.092;2022-10-16T04:13:53;14.40;99.90
12957;DHT22;6543;48.836;10.092;2022-10-16T04:16:19;14.40;99.90
12957;DHT22;6543;48.836;10.092;2022-10-16T04:18:46;14.40;99.90
12957;DHT22;6543;48.836;10.092;2022-10-16T04:21:13;14.40;99.90
12957;DHT22;6543;48.836;10.092;2022-10-16T04:23:40;14.40;99.90
12957;DHT22;6543;48.836;10.092;2022-10-16T04:26:07;14.30;99.90
12957;DHT22;6543;48.836;10.092;2022-10-16T04:28:33;14.50;99.90
12957;DHT22;6543;48.836;10.092;2022-10-16T04:31:03;14.50;99.90
12957;DHT22;6543;48.836;10.092;2022-10-16T04:33:30;15.00;99.90
12957;DHT22;6543;48.836;10.092;2022-10-16T04:35:57;14.80;99.90
12957;DHT22;6543;48.836;10.092;2022-10-16T04:38:24;14.60;99.90
12957;DHT22;6543;48.836;10.092;2022-10-16T04:40:51;14.50;99.90
12957;DHT22;6543;48.836;10.092;2022-10-16T04:43:19;14.60;99.90
12957;DHT22;6543;48.836;10.092;2022-10-16T04:45:46;14.70;99.90
12957;DHT22;6543;48.836;10.092;2022-10-16T04:48:14;14.60;99.90
12957;DHT22;6543;48.836;10.092;2022-10-16T04:50:41;14.50;99.90
12957;DHT22;6543;48.836;10.092;2022-10-16T04:53:08;14.60;99.90
12957;DHT22;6543;48.836;10.092;2022-10-16T04:55:34;14.60;99.90
12957;DHT22;6543;48.836;10.092;2022-10-16T04:58:02;14.50;99.90
12957;DHT22;6543;48.836;10.092;2022-10-16T05:00:29;14.60;99.90
12957;DHT22;6543;48.836;10.092;2022-10-16T05:02:56;14.60;99.90
12957;DHT22;6543;48.836;10.092;2022-10-16T05:05:26;14.50;99.90
12957;DHT22;6543;48.836;10.092;2022-10-16T05:07:53;14.40;99.90
12957;DHT22;6543;48.836;10.092;2022-10-16T05:10:20;14.30;99.90
12957;DHT22;6543;48.836;10.092;2022-10-16T05:12:47;14.30;99.90
12957;DHT22;6543;48.836;10.092;2022-10-16T05:15:14;14.30;99.90
12957;DHT22;6543;48.836;10.092;2022-10-16T05:17:41;14.40;99.90
12957;DHT22;6543;48.836;10.092;2022-10-16T05:20:08;14.30;99.90
12957;DHT22;6543;48.836;10.092;2022-10-16T05:22:36;14.30;99.90
12957;DHT22;6543;48.836;10.092;2022-10-16T05:25:03;14.40;99.90
12957;DHT22;6543;48.836;10.092;2022-10-16T05:27:30;14.30;99.90
12957;DHT22;6543;48.836;10.092;2022-10-16T05:29:57;14.30;99.90
12957;DHT22;6543;48.836;10.092;2022-10-16T05:32:24;14.30;99.90
12957;DHT22;6543;48.836;10.092;2022-10-16T05:34:51;14.40;99.90
12957;DHT22;6543;48.836;10.092;2022-10-16T05:37:18;14.40;99.90
12957;DHT22;6543;48.836;10.092;2022-10-16T05:39:46;14.40;99.90
12957;DHT22;6543;48.836;10.092;2022-10-16T05:42:13;14.40;99.90
12957;DHT22;6543;48.836;10.092;2022-10-16T05:44:40;14.50;99.90
12957;DHT22;6543;48.836;10.092;2022-10-16T05:47:06;14.40;99.90
12957;DHT22;6543;48.836;10.092;2022-10-16T05:49:33;14.40;99.90
12957;DHT22;6543;48.836;10.092;2022-10-16T05:52:00;14.40;99.90
12957;DHT22;6543;48.836;10.092;2022-10-16T05:54:27;14.40;99.90
12957;DHT22;6543;48.836;10.092;2022-10-16T05:56:55;14.50;99.90
12957;DHT22;6543;48.836;10.092;2022-10-16T05:59:22;14.50;99.90
12957;DHT22;6543;48.836;10.092;2022-10-16T06:01:49;14.40;99.90
12957;DHT22;6543;48.836;10.092;2022-10-16T06:04:15;14.40;99.90
12957;DHT22;6543;48.836;10.092;2022-10-16T06:06:42;14.40;99.90
12957;DHT22;6543;48.836;10.092;2022-10-16T06:09:09;14.40;99.90
12957;DHT22;6543;48.836;10.092;2022-10-16T06:11:36;14.40;99.90
12957;DHT22;6543;48.836;10.092;2022-10-16T06:14:04;14.40;99.90
12957;DHT22;6543;48.836;10.092;2022-10-16T06:16:33;14.50;99.90
12957;DHT22;6543;48.836;10.092;2022-10-16T06:19:00;14.50;99.90
12957;DHT22;6543;48.836;10.092;2022-10-16T06:21:29;14.50;99.90
12957;DHT22;6543;48.836;10.092;2022-10-16T06:23:56;14.60;99.90
12957;DHT22;6543;48.836;10.092;2022-10-16T06:26:25;14.60;99.90
12957;DHT22;6543;48.836;10.092;2022-10-16T06:28:54;14.50;99.90
12957;DHT22;6543;48.836;10.092;2022-10-16T06:31:22;14.50;99.90
12957;DHT22;6543;48.836;10.092;2022-10-16T06:33:53;14.60;99.90
12957;DHT22;6543;48.836;10.092;2022-10-16T06:36:20;14.60;99.90
12957;DHT22;6543;48.836;10.092;2022-10-16T06:38:48;14.60;99.90
12957;DHT22;6543;48.836;10.092;2022-10-16T06:41:16;14.70;99.90
12957;DHT22;6543;48.836;10.092;2022-10-16T06:43:44;14.70;99.90
12957;DHT22;6543;48.836;10.092;2022-10-16T06:46:12;14.70;99.90
12957;DHT22;6543;48.836;10.092;2022-10-16T06:48:40;14.70;99.90
12957;DHT22;6543;48.836;10.092;2022-10-16T06:51:10;14.80;99.90
12957;DHT22;6543;48.836;10.092;2022-10-16T06:53:39;14.90;99.90
12957;DHT22;6543;48.836;10.092;2022-10-16T06:56:10;14.90;99.90
12957;DHT22;6543;48.836;10.092;2022-10-16T06:58:37;15.00;99.90
12957;DHT22;6543;48.836;10.092;2022-10-16T07:01:04;15.00;99.90
12957;DHT22;6543;48.836;10.092;2022-10-16T07:03:32;15.00;99.90
12957;DHT22;6543;48.836;10.092;2022-10-16T07:06:03;15.10;99.90
12957;DHT22;6543;48.836;10.092;2022-10-16T07:08:31;15.20;99.90
12957;DHT22;6543;48.836;10.092;2022-10-16T07:10:59;15.40;99.90
12957;DHT22;6543;48.836;10.092;2022-10-16T07:13:26;15.50;99.90
12957;DHT22;6543;48.836;10.092;2022-10-16T07:15:53;15.60;99.90
12957;DHT22;6543;48.836;10.092;2022-10-16T07:18:20;15.60;99.90
12957;DHT22;6543;48.836;10.092;2022-10-16T07:20:51;15.70;99.90
12957;DHT22;6543;48.836;10.092;2022-10-16T07:23:19;15.80;99.90
12957;DHT22;6543;48.836;10.092;2022-10-16T07:25:53;15.90;99.90
12957;DHT22;6543;48.836;10.092;2022-10-16T07:28:20;15.90;99.90
12957;DHT22;6543;48.836;10.092;2022-10-16T07:30:47;16.00;99.90
12957;DHT22;6543;48.836;10.092;2022-10-16T07:33:14;16.20;99.90
12957;DHT22;6543;48.836;10.092;2022-10-16T07:35:48;16.30;99.90
12957;DHT22;6543;48.836;10.092;2022-10-16T07:38:15;16.40;99.90
12957;DHT22;6543;48.836;10.092;2022-10-16T07:40:43;16.60;99.90
12957;DHT22;6543;48.836;10.092;2022-10-16T07:43:10;16.70;99.90
12957;DHT22;6543;48.836;10.092;2022-10-16T07:45:37;16.90;99.90
12957;DHT22;6543;48.836;10.092;2022-10-16T07:48:04;17.00;99.90
12957;DHT22;6543;48.836;10.092;2022-10-16T07:50:31;17.00;99.90
12957;DHT22;6543;48.836;10.092;2022-10-16T07:52:58;17.20;99.90
12957;DHT22;6543;48.836;10.092;2022-10-16T07:55:25;17.30;99.90
12957;DHT22;6543;48.836;10.092;2022-10-16T07:57:54;17.40;99.90
12957;DHT22;6543;48.836;10.092;2022-10-16T08:00:21;17.50;99.90
12957;DHT22;6543;48.836;10.092;2022-10-16T08:02:47;17.50;99.90
12957;DHT22;6543;48.836;10.092;2022-10-16T08:05:14;17.50;99.90
12957;DHT22;6543;48.836;10.092;2022-10-16T08:07:41;17.60;99.90
12957;DHT22;6543;48.836;10.092;2022-10-16T08:10:12;17.50;99.90
12957;DHT22;6543;48.836;10.092;2022-10-16T08:12:42;17.60;99.90
12957;DHT22;6543;48.836;10.092;2022-10-16T08:15:10;17.70;99.90
12957;DHT22;6543;48.836;10.092;2022-10-16T08:17:37;17.70;99.90
12957;DHT22;6543;48.836;10.092;2022-10-16T08:20:05;17.80;99.90
12957;DHT22;6543;48.836;10.092;2022-10-16T08:22:32;17.90;99.90
12957;DHT22;6543;48.836;10.092;2022-10-16T08:24:59;17.80;99.90
12957;DHT22;6543;48.836;10.092;2022-10-16T08:27:31;17.90;99.90
12957;DHT22;6543;48.836;10.092;2022-10-16T08:29:57;17.80;99.90
12957;DHT22;6543;48.836;10.092;2022-10-16T08:32:25;17.90;99.90
12957;DHT22;6543;48.836;10.092;2022-10-16T08:34:52;17.80;99.90
12957;DHT22;6543;48.836;10.092;2022-10-16T08:37:19;17.80;99.90
12957;DHT22;6543;48.836;10.092;2022-10-16T08:39:46;17.90;99.90
12957;DHT22;6543;48.836;10.092;2022-10-16T08:42:25;17.90;99.90
12957;DHT22;6543;48.836;10.092;2022-10-16T08:45:15;17.90;99.90
12957;DHT22;6543;48.836;10.092;2022-10-16T08:47:53;18.00;99.90
12957;DHT22;6543;48.836;10.092;2022-10-16T08:50:25;18.00;99.90
12957;DHT22;6543;48.836;10.092;2022-10-16T08:52:53;18.10;99.90
12957;DHT22;6543;48.836;10.092;2022-10-16T08:55:33;18.10;99.90
12957;DHT22;6543;48.836;10.092;2022-10-16T08:58:01;18.10;99.90
12957;DHT22;6543;48.836;10.092;2022-10-16T09:00:28;18.20;99.90
12957;DHT22;6543;48.836;10.092;2022-10-16T09:03:05;18.40;99.90
12957;DHT22;6543;48.836;10.092;2022-10-16T09:05:52;18.60;99.90
12957;DHT22;6543;48.836;10.092;2022-10-16T09:08:28;18.50;99.90
12957;DHT22;6543;48.836;10.092;2022-10-16T09:10:59;18.60;99.90
12957;DHT22;6543;48.836;10.092;2022-10-16T09:13:34;18.70;99.90
12957;DHT22;6543;48.836;10.092;2022-10-16T09:16:14;18.80;99.90
12957;DHT22;6543;48.836;10.092;2022-10-16T09:18:50;19.00;99.90
12957;DHT22;6543;48.836;10.092;2022-10-16T09:21:21;19.10;99.90
12957;DHT22;6543;48.836;10.092;2022-10-16T09:23:49;19.40;99.90
12957;DHT22;6543;48.836;10.092;2022-10-16T09:26:17;19.50;99.90
12957;DHT22;6543;48.836;10.092;2022-10-16T09:28:45;19.60;99.90
12957;DHT22;6543;48.836;10.092;2022-10-16T09:31:19;19.70;99.90
12957;DHT22;6543;48.836;10.092;2022-10-16T09:33:52;19.70;99.90
12957;DHT22;6543;48.836;10.092;2022-10-16T09:36:20;19.70;99.90
12957;DHT22;6543;48.836;10.092;2022-10-16T09:38:48;19.30;99.90
12957;DHT22;6543;48.836;10.092;2022-10-16T09:41:18;19.40;99.90
12957;DHT22;6543;48.836;10.092;2022-10-16T09:43:52;19.50;99.90
12957;DHT22;6543;48.836;10.092;2022-10-16T09:46:25;19.50;99.90
12957;DHT22;6543;48.836;10.092;2022-10-16T09:48:54;19.60;99.90
12957;DHT22;6543;48.836;10.092;2022-10-16T09:51:24;19.60;99.90
12957;DHT22;6543;48.836;10.092;2022-10-16T09:53:56;19.70;99.90
12957;DHT22;6543;48.836;10.092;2022-10-16T09:56:24;19.80;99.90
12957;DHT22;6543;48.836;10.092;2022-10-16T09:58:52;19.90;99.90
12957;DHT22;6543;48.836;10.092;2022-10-16T10:01:21;20.00;99.90
12957;DHT22;6543;48.836;10.092;2022-10-16T10:03:49;20.00;99.90
12957;DHT22;6543;48.836;10.092;2022-10-16T10:06:23;20.20;99.90
12957;DHT22;6543;48.836;10.092;2022-10-16T10:08:59;20.20;99.90
12957;DHT22;6543;48.836;10.092;2022-10-16T10:11:50;20.10;99.90
12957;DHT22;6543;48.836;10.092;2022-10-16T10:14:21;20.30;99.90
12957;DHT22;6543;48.836;10.092;2022-10-16T10:16:49;20.40;99.90
12957;DHT22;6543;48.836;10.092;2022-10-16T10:19:18;20.50;99.90
12957;DHT22;6543;48.836;10.092;2022-10-16T10:21:47;20.60;99.90
12957;DHT22;6543;48.836;10.092;2022-10-16T10:24:16;20.80;99.90
12957;DHT22;6543;48.836;10.092;2022-10-16T10:26:48;20.90;99.90
12957;DHT22;6543;48.836;10.092;2022-10-16T10:29:24;21.10;99.90
12957;DHT22;6543;48.836;10.092;2022-10-16T10:32:02;21.10;99.90
12957;DHT22;6543;48.836;10.092;2022-10-16T10:34:45;21.00;99.90
12957;DHT22;6543;48.836;10.092;2022-10-16T10:37:32;21.20;99.90
12957;DHT22;6543;48.836;10.092;2022-10-16T10:40:09;21.30;99.90
12957;DHT22;6543;48.836;10.092;2022-10-16T10:42:43;21.20;99.90
12957;DHT22;6543;48.836;10.092;2022-10-16T10:45:22;21.20;99.90
12957;DHT22;6543;48.836;10.092;2022-10-16T10:47:59;21.50;99.90
12957;DHT22;6543;48.836;10.092;2022-10-16T10:50:38;21.50;99.90
12957;DHT22;6543;48.836;10.092;2022-10-16T10:53:30;21.70;99.90
12957;DHT22;6543;48.836;10.092;2022-10-16T10:56:09;21.50;99.90
12957;DHT22;6543;48.836;10.092;2022-10-16T10:59:08;21.40;99.90
12957;DHT22;6543;48.836;10.092;2022-10-16T11:01:42;21.20;99.90
12957;DHT22;6543;48.836;10.092;2022-10-16T11:04:29;21.50;99.90
12957;DHT22;6543;48.836;10.092;2022-10-16T11:07:02;21.50;99.90
12957;DHT22;6543;48.836;10.092;2022-10-16T11:09:36;21.60;99.90
12957;DHT22;6543;48.836;10.092;2022-10-16T11:12:08;21.50;99.90
12957;DHT22;6543;48.836;10.092;2022-10-16T11:14:42;21.50;99.90
12957;DHT22;6543;48.836;10.092;2022-10-16T11:17:16;21.50;99.90
12957;DHT22;6543;48.836;10.092;2022-10-16T11:19:48;21.30;99.90
12957;DHT22;6543;48.836;10.092;2022-10-16T11:22:21;21.30;99.90
12957;DHT22;6543;48.836;10.092;2022-10-16T11:24:54;21.30;99.90
12957;DHT22;6543;48.836;10.092;2022-10-16T11:27:26;21.30;99.90
12957;DHT22;6543;48.836;10.092;2022-10-16T11:29:59;21.40;99.90
12957;DHT22;6543;48.836;10.092;2022-10-16T11:32:31;21.30;99.90
12957;DHT22;6543;48.836;10.092;2022-10-16T11:35:02;21.30;99.90
12957;DHT22;6543;48.836;10.092;2022-10-16T11:37:33;21.30;99.90
12957;DHT22;6543;48.836;10.092;2022-10-16T11:40:16;21.50;99.90
12957;DHT22;6543;48.836;10.092;2022-10-16T11:42:48;21.60;99.90
12957;DHT22;6543;48.836;10.092;2022-10-16T11:45:24;21.50;99.90
12957;DHT22;6543;48.836;10.092;2022-10-16T11:48:00;21.60;99.90
12957;DHT22;6543;48.836;10.092;2022-10-16T11:50:32;21.60;99.90
12957;DHT22;6543;48.836;10.092;2022-10-16T11:53:07;21.60;99.90
12957;DHT22;6543;48.836;10.092;2022-10-16T11:55:38;21.60;99.90
12957;DHT22;6543;48.836;10.092;2022-10-16T11:58:09;21.60;99.90
12957;DHT22;6543;48.836;10.092;2022-10-16T12:00:43;21.70;99.90
12957;DHT22;6543;48.836;10.092;2022-10-16T12:03:17;21.70;99.90
12957;DHT22;6543;48.836;10.092;2022-10-16T12:05:55;21.70;99.90
12957;DHT22;6543;48.836;10.092;2022-10-16T12:08:24;21.70;99.90
12957;DHT22;6543;48.836;10.092;2022-10-16T12:10:53;21.80;99.90
12957;DHT22;6543;48.836;10.092;2022-10-16T12:13:34;21.90;99.90
12957;DHT22;6543;48.836;10.092;2022-10-16T12:16:06;21.90;99.90
12957;DHT22;6543;48.836;10.092;2022-10-16T12:18:33;21.80;99.90
12957;DHT22;6543;48.836;10.092;2022-10-16T12:21:00;21.80;99.90
12957;DHT22;6543;48.836;10.092;2022-10-16T12:23:31;21.80;99.90
12957;DHT22;6543;48.836;10.092;2022-10-16T12:26:01;21.80;99.90
12957;DHT22;6543;48.836;10.092;2022-10-16T12:28:29;22.00;99.90
12957;DHT22;6543;48.836;10.092;2022-10-16T12:30:58;22.10;99.90
12957;DHT22;6543;48.836;10.092;2022-10-16T12:33:27;22.20;99.90
12957;DHT22;6543;48.836;10.092;2022-10-16T12:35:55;22.40;99.90
12957;DHT22;6543;48.836;10.092;2022-10-16T12:38:26;22.20;99.90
12957;DHT22;6543;48.836;10.092;2022-10-16T12:41:01;22.40;99.90
12957;DHT22;6543;48.836;10.092;2022-10-16T12:43:38;22.40;99.90
12957;DHT22;6543;48.836;10.092;2022-10-16T12:46:22;22.30;99.90
12957;DHT22;6543;48.836;10.092;2022-10-16T12:48:49;22.20;99.90
12957;DHT22;6543;48.836;10.092;2022-10-16T12:51:23;22.10;99.90
12957;DHT22;6543;48.836;10.092;2022-10-16T12:54:01;22.00;99.90
12957;DHT22;6543;48.836;10.092;2022-10-16T12:56:39;22.20;99.90
12957;DHT22;6543;48.836;10.092;2022-10-16T12:59:16;22.10;99.90
12957;DHT22;6543;48.836;10.092;2022-10-16T13:01:56;22.20;99.90
12957;DHT22;6543;48.836;10.092;2022-10-16T13:04:39;22.20;99.90
12957;DHT22;6543;48.836;10.092;2022-10-16T13:07:32;22.30;99.90
12957;DHT22;6543;48.836;10.092;2022-10-16T13:10:13;22.20;99.90
12957;DHT22;6543;48.836;10.092;2022-10-16T13:13:09;22.20;99.90
12957;DHT22;6543;48.836;10.092;2022-10-16T13:16:01;22.20;99.90
12957;DHT22;6543;48.836;10.092;2022-10-16T13:18:40;22.10;99.90
12957;DHT22;6543;48.836;10.092;2022-10-16T13:21:19;22.10;99.90
12957;DHT22;6543;48.836;10.092;2022-10-16T13:23:56;22.00;99.90
12957;DHT22;6543;48.836;10.092;2022-10-16T13:26:32;22.10;99.90
12957;DHT22;6543;48.836;10.092;2022-10-16T13:29:04;22.20;99.90
12957;DHT22;6543;48.836;10.092;2022-10-16T13:31:32;22.20;99.90
12957;DHT22;6543;48.836;10.092;2022-10-16T13:34:00;22.20;99.90
12957;DHT22;6543;48.836;10.092;2022-10-16T13:36:29;22.20;99.90
12957;DHT22;6543;48.836;10.092;2022-10-16T13:39:15;22.50;99.90
12957;DHT22;6543;48.836;10.092;2022-10-16T13:41:43;22.50;99.90
12957;DHT22;6543;48.836;10.092;2022-10-16T13:44:15;22.50;99.90
12957;DHT22;6543;48.836;10.092;2022-10-16T13:46:43;22.50;99.90
12957;DHT22;6543;48.836;10.092;2022-10-16T13:49:15;22.50;99.90
12957;DHT22;6543;48.836;10.092;2022-10-16T13:51:54;22.50;99.90
12957;DHT22;6543;48.836;10.092;2022-10-16T13:54:21;22.50;99.90
12957;DHT22;6543;48.836;10.092;2022-10-16T13:56:48;22.60;99.90
12957;DHT22;6543;48.836;10.092;2022-10-16T13:59:25;22.60;99.90
12957;DHT22;6543;48.836;10.092;2022-10-16T14:01:54;22.70;99.90
12957;DHT22;6543;48.836;10.092;2022-10-16T14:04:23;22.80;99.90
12957;DHT22;6543;48.836;10.092;2022-10-16T14:06:51;22.80;99.90
12957;DHT22;6543;48.836;10.092;2022-10-16T14:09:23;22.70;99.90
12957;DHT22;6543;48.836;10.092;2022-10-16T14:11:53;22.80;99.90
12957;DHT22;6543;48.836;10.092;2022-10-16T14:14:23;22.80;99.90
12957;DHT22;6543;48.836;10.092;2022-10-16T14:16:51;21.60;99.90
12957;DHT22;6543;48.836;10.092;2022-10-16T14:19:20;22.80;99.90
12957;DHT22;6543;48.836;10.092;2022-10-16T14:21:49;23.00;99.90
12957;DHT22;6543;48.836;10.092;2022-10-16T14:24:25;23.10;99.90
12957;DHT22;6543;48.836;10.092;2022-10-16T14:26:53;23.00;99.90
12957;DHT22;6543;48.836;10.092;2022-10-16T14:29:24;23.00;99.90
12957;DHT22;6543;48.836;10.092;2022-10-16T14:31:55;22.90;99.90
12957;DHT22;6543;48.836;10.092;2022-10-16T14:34:29;22.70;99.90
12957;DHT22;6543;48.836;10.092;2022-10-16T14:37:00;22.70;99.90
12957;DHT22;6543;48.836;10.092;2022-10-16T14:39:32;22.60;99.90
12957;DHT22;6543;48.836;10.092;2022-10-16T14:42:00;22.50;99.90
12957;DHT22;6543;48.836;10.092;2022-10-16T14:44:31;22.40;99.90
12957;DHT22;6543;48.836;10.092;2022-10-16T14:47:06;22.40;99.90
12957;DHT22;6543;48.836;10.092;2022-10-16T14:49:33;22.40;99.90
12957;DHT22;6543;48.836;10.092;2022-10-16T14:52:01;22.40;99.90
12957;DHT22;6543;48.836;10.092;2022-10-16T14:54:28;22.40;99.90
12957;DHT22;6543;48.836;10.092;2022-10-16T14:56:57;22.30;99.90
12957;DHT22;6543;48.836;10.092;2022-10-16T14:59:29;22.20;99.90
12957;DHT22;6543;48.836;10.092;2022-10-16T15:01:56;22.10;99.90
12957;DHT22;6543;48.836;10.092;2022-10-16T15:04:23;22.00;99.90
12957;DHT22;6543;48.836;10.092;2022-10-16T15:06:50;21.90;99.90
12957;DHT22;6543;48.836;10.092;2022-10-16T15:09:17;21.90;99.90
12957;DHT22;6543;48.836;10.092;2022-10-16T15:11:44;21.80;99.90
12957;DHT22;6543;48.836;10.092;2022-10-16T15:14:12;21.80;99.90
12957;DHT22;6543;48.836;10.092;2022-10-16T15:16:41;21.70;99.90
12957;DHT22;6543;48.836;10.092;2022-10-16T15:19:08;21.60;99.90
12957;DHT22;6543;48.836;10.092;2022-10-16T15:21:35;21.50;99.90
12957;DHT22;6543;48.836;10.092;2022-10-16T15:24:02;21.40;99.90
12957;DHT22;6543;48.836;10.092;2022-10-16T15:26:29;21.30;99.90
12957;DHT22;6543;48.836;10.092;2022-10-16T15:28:56;21.10;99.90
12957;DHT22;6543;48.836;10.092;2022-10-16T15:31:24;21.00;99.90
12957;DHT22;6543;48.836;10.092;2022-10-16T15:33:53;20.90;99.90
12957;DHT22;6543;48.836;10.092;2022-10-16T15:36:27;20.70;99.90
12957;DHT22;6543;48.836;10.092;2022-10-16T15:38:55;20.70;99.90
12957;DHT22;6543;48.836;10.092;2022-10-16T15:41:22;20.50;99.90
12957;DHT22;6543;48.836;10.092;2022-10-16T15:43:49;20.50;99.90
12957;DHT22;6543;48.836;10.092;2022-10-16T15:46:19;20.50;99.90
12957;DHT22;6543;48.836;10.092;2022-10-16T15:48:47;20.30;99.90